sensor_id;sensor_type;location;lat;lon;timestamp;pressure;altitude;pressure_sealevel;temperature;humidity
14295;BME280;7231;59.370;18.016;2023-05-14T00:01:41;102240.69;;;11.89;53.11
14295;BME280;7231;59.370;18.016;2023-05-14T00:04:10;102236.41;;;11.91;53.00
14295;BME280;7231;59.370;18.016;2023-05-14T00:06:39;102238.31;;;11.95;53.51
14295;BME280;7231;59.370;18.016;2023-05-14T00:09:07;102240.97;;;11.95;53.11
14295;BME280;7231;59.370;18.016;2023-05-14T00:11:35;102235.69;;;11.95;53.16
14295;BME280;7231;59.370;18.016;2023-05-14T00:14:03;102240.06;;;11.94;53.17
14295;BME280;7231;59.370;18.016;2023-05-14T00:16:31;102240.75;;;11.90;53.52
14295;BME280;7231;59.370;18.016;2023-05-14T00:18:59;102228.16;;;11.83;53.36
14295;BME280;7231;59.370;18.016;2023-05-14T00:21:27;102247.06;;;11.76;53.98
14295;BME280;7231;59.370;18.016;2023-05-14T00:23:56;102170.50;;;11.30;54.13
14295;BME280;7231;59.370;18.016;2023-05-14T00:26:24;102246.44;;;11.62;54.17
14295;BME280;7231;59.370;18.016;2023-05-14T00:28:52;102245.19;;;11.54;54.71
14295;BME280;7231;59.370;18.016;2023-05-14T00:31:20;102243.31;;;11.52;54.50
14295;BME280;7231;59.370;18.016;2023-05-14T00:33:48;102230.59;;;11.42;54.96
14295;BME280;7231;59.370;18.016;2023-05-14T00:36:16;102244.84;;;11.47;55.08
14295;BME280;7231;59.370;18.016;2023-05-14T00:38:44;102243.72;;;11.42;55.05
14295;BME280;7231;59.370;18.016;2023-05-14T00:41:13;102241.78;;;11.37;55.23
14295;BME280;7231;59.370;18.016;2023-05-14T00:43:41;102252.00;;;11.31;55.63
14295;BME280;7231;59.370;18.016;2023-05-14T00:46:09;102245.56;;;11.25;55.63
14295;BME280;7231;59.370;18.016;2023-05-14T00:48:38;102229.34;;;11.16;55.78
14295;BME280;7231;59.370;18.016;2023-05-14T00:51:06;102246.31;;;11.22;56.10
14295;BME280;7231;59.370;18.016;2023-05-14T00:53:35;102240.06;;;11.20;56.31
14295;BME280;7231;59.370;18.016;2023-05-14T00:56:04;102249.47;;;11.15;56.32
14295;BME280;7231;59.370;18.016;2023-05-14T00:58:33;102246.09;;;11.18;56.52
14295;BME280;7231;59.370;18.016;2023-05-14T01:01:01;102244.44;;;11.20;56.65
14295;BME280;7231;59.370;18.016;2023-05-14T01:03:30;102242.34;;;11.13;56.74
14295;BME280;7231;59.370;18.016;2023-05-14T01:06:07;102231.75;;;11.11;57.10
14295;BME280;7231;59.370;18.016;2023-05-14T01:08:45;102189.78;;;10.76;57.24
14295;BME280;7231;59.370;18.016;2023-05-14T01:11:18;102228.56;;;10.99;57.46
14295;BME280;7231;59.370;18.016;2023-05-14T01:13:56;102208.31;;;10.79;57.69
14295;BME280;7231;59.370;18.016;2023-05-14T01:16:26;102234.16;;;10.89;57.67
14295;BME280;7231;59.370;18.016;2023-05-14T01:18:57;102243.69;;;10.87;58.03
14295;BME280;7231;59.370;18.016;2023-05-14T01:21:36;102240.25;;;10.88;58.75
14295;BME280;7231;59.370;18.016;2023-05-14T01:24:06;102233.78;;;10.81;58.38
14295;BME280;7231;59.370;18.016;2023-05-14T01:26:35;102190.38;;;10.52;58.79
14295;BME280;7231;59.370;18.016;2023-05-14T01:29:09;102247.88;;;10.83;59.35
14295;BME280;7231;59.370;18.016;2023-05-14T01:31:42;102247.50;;;10.76;59.47
14295;BME280;7231;59.370;18.016;2023-05-14T01:34:11;102245.19;;;10.64;59.71
14295;BME280;7231;59.370;18.016;2023-05-14T01:36:42;102246.06;;;10.64;60.45
14295;BME280;7231;59.370;18.016;2023-05-14T01:39:10;102248.63;;;10.63;60.49
14295;BME280;7231;59.370;18.016;2023-05-14T01:41:41;102249.22;;;10.57;60.88
14295;BME280;7231;59.370;18.016;2023-05-14T01:44:09;102243.81;;;10.54;61.43
14295;BME280;7231;59.370;18.016;2023-05-14T01:46:37;102245.63;;;10.55;61.71
14295;BME280;7231;59.370;18.016;2023-05-14T01:49:05;102243.00;;;10.55;62.14
14295;BME280;7231;59.370;18.016;2023-05-14T01:51:33;102245.63;;;10.55;62.16
14295;BME280;7231;59.370;18.016;2023-05-14T01:54:03;102244.72;;;10.55;62.58
14295;BME280;7231;59.370;18.016;2023-05-14T01:56:31;102249.28;;;10.59;62.33
14295;BME280;7231;59.370;18.016;2023-05-14T01:59:00;102239.53;;;10.56;62.35
14295;BME280;7231;59.370;18.016;2023-05-14T02:01:28;102243.66;;;10.51;62.35
14295;BME280;7231;59.370;18.016;2023-05-14T02:03:57;102247.78;;;10.46;62.59
14295;BME280;7231;59.370;18.016;2023-05-14T02:06:25;102242.38;;;10.43;62.77
14295;BME280;7231;59.370;18.016;2023-05-14T02:08:53;102251.06;;;10.42;62.78
14295;BME280;7231;59.370;18.016;2023-05-14T02:11:23;102243.97;;;10.39;62.83
14295;BME280;7231;59.370;18.016;2023-05-14T02:13:51;102226.22;;;10.34;62.75
14295;BME280;7231;59.370;18.016;2023-05-14T02:16:19;102242.19;;;10.38;62.83
14295;BME280;7231;59.370;18.016;2023-05-14T02:18:47;102236.69;;;10.34;62.97
14295;BME280;7231;59.370;18.016;2023-05-14T02:21:15;102246.34;;;10.35;63.25
14295;BME280;7231;59.370;18.016;2023-05-14T02:23:43;102241.84;;;10.32;63.25
14295;BME280;7231;59.370;18.016;2023-05-14T02:26:11;102232.63;;;10.23;63.45
14295;BME280;7231;59.370;18.016;2023-05-14T02:28:40;102240.41;;;10.21;63.63
14295;BME280;7231;59.370;18.016;2023-05-14T02:31:08;102255.31;;;10.22;63.70
14295;BME280;7231;59.370;18.016;2023-05-14T02:33:36;102251.59;;;10.19;63.85
14295;BME280;7231;59.370;18.016;2023-05-14T02:36:04;102254.13;;;10.17;64.13
14295;BME280;7231;59.370;18.016;2023-05-14T02:38:32;102252.25;;;10.15;64.13
14295;BME280;7231;59.370;18.016;2023-05-14T02:41:00;102238.91;;;10.10;64.30
14295;BME280;7231;59.370;18.016;2023-05-14T02:43:28;102243.34;;;10.11;64.54
14295;BME280;7231;59.370;18.016;2023-05-14T02:45:57;102233.34;;;10.04;64.81
14295;BME280;7231;59.370;18.016;2023-05-14T02:48:25;102251.28;;;10.13;64.83
14295;BME280;7231;59.370;18.016;2023-05-14T02:50:53;102243.56;;;10.16;64.84
14295;BME280;7231;59.370;18.016;2023-05-14T02:53:21;102240.50;;;10.23;64.78
14295;BME280;7231;59.370;18.016;2023-05-14T02:55:49;102255.63;;;10.28;64.50
14295;BME280;7231;59.370;18.016;2023-05-14T02:58:17;102238.75;;;10.23;64.61
14295;BME280;7231;59.370;18.016;2023-05-14T03:00:51;102240.22;;;10.18;64.85
14295;BME280;7231;59.370;18.016;2023-05-14T03:03:21;102245.72;;;10.23;65.15
14295;BME280;7231;59.370;18.016;2023-05-14T03:05:49;102250.88;;;10.21;65.24
14295;BME280;7231;59.370;18.016;2023-05-14T03:08:17;102252.50;;;10.19;65.38
14295;BME280;7231;59.370;18.016;2023-05-14T03:10:45;102255.25;;;10.21;65.37
14295;BME280;7231;59.370;18.016;2023-05-14T03:13:16;102248.28;;;10.21;65.56
14295;BME280;7231;59.370;18.016;2023-05-14T03:15:46;102246.72;;;10.25;65.76
14295;BME280;7231;59.370;18.016;2023-05-14T03:18:14;102248.00;;;10.33;65.65
14295;BME280;7231;59.370;18.016;2023-05-14T03:20:43;102245.63;;;10.37;65.64
14295;BME280;7231;59.370;18.016;2023-05-14T03:23:11;102240.28;;;10.36;65.98
14295;BME280;7231;59.370;18.016;2023-05-14T03:25:40;102249.06;;;10.36;66.49
14295;BME280;7231;59.370;18.016;2023-05-14T03:28:08;102249.34;;;10.43;66.92
14295;BME280;7231;59.370;18.016;2023-05-14T03:30:38;102247.94;;;10.49;67.12
14295;BME280;7231;59.370;18.016;2023-05-14T03:33:06;102238.34;;;10.50;67.46
14295;BME280;7231;59.370;18.016;2023-05-14T03:35:34;102248.84;;;10.50;68.09
14295;BME280;7231;59.370;18.016;2023-05-14T03:38:03;102247.09;;;10.50;68.59
14295;BME280;7231;59.370;18.016;2023-05-14T03:40:31;102243.50;;;10.48;68.64
14295;BME280;7231;59.370;18.016;2023-05-14T03:42:59;102247.03;;;10.49;68.97
14295;BME280;7231;59.370;18.016;2023-05-14T03:45:27;102245.47;;;10.52;69.04
14295;BME280;7231;59.370;18.016;2023-05-14T03:47:55;102240.53;;;10.58;69.33
14295;BME280;7231;59.370;18.016;2023-05-14T03:50:24;102241.13;;;10.70;69.16
14295;BME280;7231;59.370;18.016;2023-05-14T03:52:52;102230.13;;;10.78;68.91
14295;BME280;7231;59.370;18.016;2023-05-14T03:55:22;102212.94;;;10.66;69.37
14295;BME280;7231;59.370;18.016;2023-05-14T03:57:50;102214.22;;;10.74;69.35
14295;BME280;7231;59.370;18.016;2023-05-14T04:00:18;102234.09;;;10.87;69.29
14295;BME280;7231;59.370;18.016;2023-05-14T04:02:47;102236.88;;;10.90;69.37
14295;BME280;7231;59.370;18.016;2023-05-14T04:05:15;102220.16;;;10.88;69.35
14295;BME280;7231;59.370;18.016;2023-05-14T04:07:43;102231.47;;;11.05;69.21
14295;BME280;7231;59.370;18.016;2023-05-14T04:10:12;102218.63;;;11.11;69.44
14295;BME280;7231;59.370;18.016;2023-05-14T04:12:41;102206.19;;;11.07;69.55
14295;BME280;7231;59.370;18.016;2023-05-14T04:15:10;102213.00;;;11.21;69.46
14295;BME280;7231;59.370;18.016;2023-05-14T04:17:38;102215.97;;;11.29;69.24
14295;BME280;7231;59.370;18.016;2023-05-14T04:20:07;102183.00;;;11.16;69.41
14295;BME280;7231;59.370;18.016;2023-05-14T04:22:35;102213.72;;;11.36;69.31
14295;BME280;7231;59.370;18.016;2023-05-14T04:25:03;102211.38;;;11.43;69.31
14295;BME280;7231;59.370;18.016;2023-05-14T04:27:32;102213.53;;;11.51;69.07
14295;BME280;7231;59.370;18.016;2023-05-14T04:30:01;102162.44;;;11.25;69.09
14295;BME280;7231;59.370;18.016;2023-05-14T04:32:29;102212.00;;;11.56;69.09
14295;BME280;7231;59.370;18.016;2023-05-14T04:34:57;102213.06;;;11.60;68.87
14295;BME280;7231;59.370;18.016;2023-05-14T04:37:25;102201.56;;;11.58;69.08
14295;BME280;7231;59.370;18.016;2023-05-14T04:39:53;102206.34;;;11.66;69.09
14295;BME280;7231;59.370;18.016;2023-05-14T04:42:21;102203.78;;;11.68;68.69
14295;BME280;7231;59.370;18.016;2023-05-14T04:44:49;102213.81;;;11.77;68.78
14295;BME280;7231;59.370;18.016;2023-05-14T04:47:19;102204.56;;;11.85;68.81
14295;BME280;7231;59.370;18.016;2023-05-14T04:49:47;102201.47;;;11.93;68.33
14295;BME280;7231;59.370;18.016;2023-05-14T04:52:15;102189.22;;;11.94;68.34
14295;BME280;7231;59.370;18.016;2023-05-14T04:54:43;102193.41;;;12.10;67.89
14295;BME280;7231;59.370;18.016;2023-05-14T04:57:11;102193.69;;;12.16;67.81
14295;BME280;7231;59.370;18.016;2023-05-14T04:59:39;102174.88;;;12.07;67.55
14295;BME280;7231;59.370;18.016;2023-05-14T05:02:07;102185.09;;;12.20;67.11
14295;BME280;7231;59.370;18.016;2023-05-14T05:04:37;102195.44;;;12.36;67.73
14295;BME280;7231;59.370;18.016;2023-05-14T05:07:05;102196.59;;;12.43;67.13
14295;BME280;7231;59.370;18.016;2023-05-14T05:09:33;102169.13;;;12.36;66.83
14295;BME280;7231;59.370;18.016;2023-05-14T05:12:01;102129.09;;;12.22;66.73
14295;BME280;7231;59.370;18.016;2023-05-14T05:14:29;102191.19;;;12.60;66.54
14295;BME280;7231;59.370;18.016;2023-05-14T05:16:57;102182.41;;;12.60;66.61
14295;BME280;7231;59.370;18.016;2023-05-14T05:19:25;102197.09;;;12.76;66.19
14295;BME280;7231;59.370;18.016;2023-05-14T05:22:10;102200.91;;;12.84;65.95
14295;BME280;7231;59.370;18.016;2023-05-14T05:24:38;102205.59;;;12.91;65.89
14295;BME280;7231;59.370;18.016;2023-05-14T05:27:06;102194.41;;;12.96;65.38
14295;BME280;7231;59.370;18.016;2023-05-14T05:29:34;102197.31;;;13.04;65.28
14295;BME280;7231;59.370;18.016;2023-05-14T05:32:02;102176.19;;;13.02;65.32
14295;BME280;7231;59.370;18.016;2023-05-14T05:34:30;102195.44;;;13.22;64.86
14295;BME280;7231;59.370;18.016;2023-05-14T05:36:58;102194.00;;;13.30;64.74
14295;BME280;7231;59.370;18.016;2023-05-14T05:39:27;102137.81;;;13.09;64.98
14295;BME280;7231;59.370;18.016;2023-05-14T05:42:01;102185.66;;;13.42;64.38
14295;BME280;7231;59.370;18.016;2023-05-14T05:44:29;102190.50;;;13.54;64.34
14295;BME280;7231;59.370;18.016;2023-05-14T05:46:57;102189.88;;;13.61;64.21
14295;BME280;7231;59.370;18.016;2023-05-14T05:49:25;102199.88;;;13.70;63.94
14295;BME280;7231;59.370;18.016;2023-05-14T05:51:53;102185.91;;;13.72;63.33
14295;BME280;7231;59.370;18.016;2023-05-14T05:54:22;102186.25;;;13.81;63.44
14295;BME280;7231;59.370;18.016;2023-05-14T05:56:56;102195.50;;;13.94;63.13
14295;BME280;7231;59.370;18.016;2023-05-14T05:59:23;102194.94;;;14.03;62.81
14295;BME280;7231;59.370;18.016;2023-05-14T06:01:51;102189.13;;;14.13;62.87
14295;BME280;7231;59.370;18.016;2023-05-14T06:04:22;102186.03;;;14.24;62.27
14295;BME280;7231;59.370;18.016;2023-05-14T06:06:50;102188.19;;;14.36;62.01
14295;BME280;7231;59.370;18.016;2023-05-14T06:09:18;102175.09;;;14.39;61.63
14295;BME280;7231;59.370;18.016;2023-05-14T06:11:47;102184.56;;;14.58;61.10
14295;BME280;7231;59.370;18.016;2023-05-14T06:14:18;102180.53;;;14.69;60.57
14295;BME280;7231;59.370;18.016;2023-05-14T06:16:46;102187.84;;;14.78;60.28
14295;BME280;7231;59.370;18.016;2023-05-14T06:19:14;102174.00;;;14.85;60.06
14295;BME280;7231;59.370;18.016;2023-05-14T06:21:42;102179.63;;;14.96;59.48
14295;BME280;7231;59.370;18.016;2023-05-14T06:24:10;102184.44;;;15.09;59.17
14295;BME280;7231;59.370;18.016;2023-05-14T06:26:38;102177.59;;;15.15;58.99
14295;BME280;7231;59.370;18.016;2023-05-14T06:29:06;102184.94;;;15.25;58.53
14295;BME280;7231;59.370;18.016;2023-05-14T06:31:36;102183.34;;;15.31;57.88
14295;BME280;7231;59.370;18.016;2023-05-14T06:34:04;102179.94;;;15.35;57.59
14295;BME280;7231;59.370;18.016;2023-05-14T06:36:34;102189.09;;;15.46;57.09
14295;BME280;7231;59.370;18.016;2023-05-14T06:39:02;102172.41;;;15.48;56.60
14295;BME280;7231;59.370;18.016;2023-05-14T06:41:30;102172.75;;;15.59;56.15
14295;BME280;7231;59.370;18.016;2023-05-14T06:43:58;102184.41;;;15.67;55.80
14295;BME280;7231;59.370;18.016;2023-05-14T06:46:26;102182.81;;;15.72;55.30
14295;BME280;7231;59.370;18.016;2023-05-14T06:48:55;102168.81;;;15.76;54.99
14295;BME280;7231;59.370;18.016;2023-05-14T06:51:25;102178.88;;;15.89;54.79
14295;BME280;7231;59.370;18.016;2023-05-14T06:53:53;102165.75;;;15.93;54.29
14295;BME280;7231;59.370;18.016;2023-05-14T06:56:21;102178.53;;;16.09;53.94
14295;BME280;7231;59.370;18.016;2023-05-14T06:58:49;102173.56;;;16.21;53.62
14295;BME280;7231;59.370;18.016;2023-05-14T07:01:17;102166.72;;;16.29;53.26
14295;BME280;7231;59.370;18.016;2023-05-14T07:03:45;102176.91;;;16.48;53.03
14295;BME280;7231;59.370;18.016;2023-05-14T07:06:16;102174.66;;;16.64;52.33
14295;BME280;7231;59.370;18.016;2023-05-14T07:08:45;102159.88;;;16.72;52.10
14295;BME280;7231;59.370;18.016;2023-05-14T07:11:13;102174.66;;;17.00;51.90
14295;BME280;7231;59.370;18.016;2023-05-14T07:13:43;102171.66;;;17.24;51.32
14295;BME280;7231;59.370;18.016;2023-05-14T07:16:13;102168.75;;;17.52;50.98
14295;BME280;7231;59.370;18.016;2023-05-14T07:18:41;102173.53;;;17.68;50.75
14295;BME280;7231;59.370;18.016;2023-05-14T07:21:20;102163.59;;;18.03;51.02
14295;BME280;7231;59.370;18.016;2023-05-14T07:23:49;102168.78;;;18.48;50.67
14295;BME280;7231;59.370;18.016;2023-05-14T07:26:17;102160.84;;;19.06;50.10
14295;BME280;7231;59.370;18.016;2023-05-14T07:28:47;102157.41;;;19.80;47.84
14295;BME280;7231;59.370;18.016;2023-05-14T07:31:15;102152.63;;;20.34;47.27
14295;BME280;7231;59.370;18.016;2023-05-14T07:33:43;102151.28;;;20.91;46.34
14295;BME280;7231;59.370;18.016;2023-05-14T07:36:11;102144.53;;;21.56;44.74
14295;BME280;7231;59.370;18.016;2023-05-14T07:38:41;102147.38;;;22.15;43.33
14295;BME280;7231;59.370;18.016;2023-05-14T07:41:09;102137.56;;;22.66;42.87
14295;BME280;7231;59.370;18.016;2023-05-14T07:43:37;102141.84;;;23.39;41.33
14295;BME280;7231;59.370;18.016;2023-05-14T07:46:06;102137.19;;;23.82;39.83
14295;BME280;7231;59.370;18.016;2023-05-14T07:48:33;102074.72;;;23.74;38.70
14295;BME280;7231;59.370;18.016;2023-05-14T07:51:01;102111.13;;;24.05;38.15
14295;BME280;7231;59.370;18.016;2023-05-14T07:53:29;102125.28;;;24.27;37.53
14295;BME280;7231;59.370;18.016;2023-05-14T07:55:59;102128.66;;;24.50;36.95
14295;BME280;7231;59.370;18.016;2023-05-14T07:58:27;102121.88;;;25.02;36.36
14295;BME280;7231;59.370;18.016;2023-05-14T08:00:55;102123.44;;;25.21;35.58
14295;BME280;7231;59.370;18.016;2023-05-14T08:03:23;102119.84;;;25.22;35.10
14295;BME280;7231;59.370;18.016;2023-05-14T08:05:51;102111.59;;;25.39;34.75
14295;BME280;7231;59.370;18.016;2023-05-14T08:08:19;102111.28;;;25.62;34.40
14295;BME280;7231;59.370;18.016;2023-05-14T08:10:47;102120.25;;;25.61;34.34
14295;BME280;7231;59.370;18.016;2023-05-14T08:13:16;102111.03;;;25.81;33.76
14295;BME280;7231;59.370;18.016;2023-05-14T08:15:45;102106.03;;;26.12;33.42
14295;BME280;7231;59.370;18.016;2023-05-14T08:18:13;102108.88;;;26.57;33.11
14295;BME280;7231;59.370;18.016;2023-05-14T08:20:41;102098.41;;;26.88;32.60
14295;BME280;7231;59.370;18.016;2023-05-14T08:23:09;102088.91;;;27.15;31.53
14295;BME280;7231;59.370;18.016;2023-05-14T08:25:37;102097.97;;;27.53;31.62
14295;BME280;7231;59.370;18.016;2023-05-14T08:28:06;102087.16;;;27.94;30.63
14295;BME280;7231;59.370;18.016;2023-05-14T08:30:35;102068.78;;;28.10;29.96
14295;BME280;7231;59.370;18.016;2023-05-14T08:33:03;102089.88;;;28.30;29.65
14295;BME280;7231;59.370;18.016;2023-05-14T08:35:31;102083.75;;;28.57;29.47
14295;BME280;7231;59.370;18.016;2023-05-14T08:37:59;102078.88;;;28.70;29.07
14295;BME280;7231;59.370;18.016;2023-05-14T08:40:27;102093.19;;;28.73;28.17
14295;BME280;7231;59.370;18.016;2023-05-14T08:42:56;102087.63;;;28.11;28.41
14295;BME280;7231;59.370;18.016;2023-05-14T08:45:29;102080.19;;;27.86;28.67
14295;BME280;7231;59.370;18.016;2023-05-14T08:48:02;102082.88;;;28.23;28.78
14295;BME280;7231;59.370;18.016;2023-05-14T08:50:35;102075.00;;;28.80;28.45
14295;BME280;7231;59.370;18.016;2023-05-14T08:53:03;102066.38;;;29.29;28.09
14295;BME280;7231;59.370;18.016;2023-05-14T08:55:31;102071.44;;;29.69;27.68
14295;BME280;7231;59.370;18.016;2023-05-14T08:57:59;102083.59;;;29.84;27.05
14295;BME280;7231;59.370;18.016;2023-05-14T09:00:28;102080.09;;;30.09;27.14
14295;BME280;7231;59.370;18.016;2023-05-14T09:02:56;102074.91;;;30.02;26.51
14295;BME280;7231;59.370;18.016;2023-05-14T09:05:27;102072.72;;;29.86;26.34
14295;BME280;7231;59.370;18.016;2023-05-14T09:07:55;102071.47;;;29.96;26.33
14295;BME280;7231;59.370;18.016;2023-05-14T09:10:23;102057.69;;;29.77;25.98
14295;BME280;7231;59.370;18.016;2023-05-14T09:12:52;102077.66;;;29.73;26.09
14295;BME280;7231;59.370;18.016;2023-05-14T09:15:20;102068.94;;;29.34;25.86
14295;BME280;7231;59.370;18.016;2023-05-14T09:17:47;102061.91;;;29.28;25.73
14295;BME280;7231;59.370;18.016;2023-05-14T09:20:16;102063.66;;;29.00;25.27
14295;BME280;7231;59.370;18.016;2023-05-14T09:22:45;102060.38;;;27.87;25.75
14295;BME280;7231;59.370;18.016;2023-05-14T09:25:13;102063.47;;;27.70;26.73
14295;BME280;7231;59.370;18.016;2023-05-14T09:27:41;101994.22;;;27.73;26.08
14295;BME280;7231;59.370;18.016;2023-05-14T09:30:10;102058.03;;;27.73;25.57
14295;BME280;7231;59.370;18.016;2023-05-14T09:32:39;102035.16;;;27.51;25.44
14295;BME280;7231;59.370;18.016;2023-05-14T09:35:11;102055.81;;;27.50;25.64
14295;BME280;7231;59.370;18.016;2023-05-14T09:37:41;102054.75;;;27.19;25.69
14295;BME280;7231;59.370;18.016;2023-05-14T09:40:14;102048.13;;;27.33;25.09
14295;BME280;7231;59.370;18.016;2023-05-14T09:42:44;102055.69;;;27.16;25.39
14295;BME280;7231;59.370;18.016;2023-05-14T09:45:14;102019.88;;;26.68;26.13
14295;BME280;7231;59.370;18.016;2023-05-14T09:47:42;102055.00;;;27.06;25.77
14295;BME280;7231;59.370;18.016;2023-05-14T09:50:11;101991.13;;;27.13;25.64
14295;BME280;7231;59.370;18.016;2023-05-14T09:52:40;102047.47;;;27.64;25.20
14295;BME280;7231;59.370;18.016;2023-05-14T09:55:09;102052.31;;;27.46;24.85
14295;BME280;7231;59.370;18.016;2023-05-14T09:57:42;102049.97;;;27.31;25.19
14295;BME280;7231;59.370;18.016;2023-05-14T10:00:11;102052.38;;;27.43;25.46
14295;BME280;7231;59.370;18.016;2023-05-14T10:02:43;102041.28;;;27.57;25.23
14295;BME280;7231;59.370;18.016;2023-05-14T10:05:13;102047.03;;;27.42;24.87
14295;BME280;7231;59.370;18.016;2023-05-14T10:07:47;102045.84;;;27.15;25.09
14295;BME280;7231;59.370;18.016;2023-05-14T10:10:18;102028.97;;;27.07;24.84
14295;BME280;7231;59.370;18.016;2023-05-14T10:12:51;102040.00;;;27.35;24.73
14295;BME280;7231;59.370;18.016;2023-05-14T10:15:25;102038.50;;;26.78;24.17
14295;BME280;7231;59.370;18.016;2023-05-14T10:17:59;102035.22;;;27.07;24.46
14295;BME280;7231;59.370;18.016;2023-05-14T10:20:30;102031.97;;;27.33;23.45
14295;BME280;7231;59.370;18.016;2023-05-14T10:22:59;102022.88;;;26.96;23.45
14295;BME280;7231;59.370;18.016;2023-05-14T10:25:29;102027.34;;;26.98;22.43
14295;BME280;7231;59.370;18.016;2023-05-14T10:27:59;102038.38;;;26.84;21.02
14295;BME280;7231;59.370;18.016;2023-05-14T10:30:28;102028.63;;;26.33;21.04
14295;BME280;7231;59.370;18.016;2023-05-14T10:33:07;101895.97;;;25.32;21.14
14295;BME280;7231;59.370;18.016;2023-05-14T10:35:56;102017.41;;;26.57;21.28
14295;BME280;7231;59.370;18.016;2023-05-14T10:38:27;101994.66;;;27.15;21.82
14295;BME280;7231;59.370;18.016;2023-05-14T10:40:58;102016.00;;;26.81;22.98
14295;BME280;7231;59.370;18.016;2023-05-14T10:43:28;102007.81;;;26.42;24.27
14295;BME280;7231;59.370;18.016;2023-05-14T10:45:58;102025.84;;;26.83;24.20
14295;BME280;7231;59.370;18.016;2023-05-14T10:48:27;102002.44;;;26.42;24.28
14295;BME280;7231;59.370;18.016;2023-05-14T10:50:56;102000.28;;;26.61;24.49
14295;BME280;7231;59.370;18.016;2023-05-14T10:53:35;101995.22;;;26.89;24.05
14295;BME280;7231;59.370;18.016;2023-05-14T10:56:05;101998.91;;;26.83;24.73
14295;BME280;7231;59.370;18.016;2023-05-14T10:58:36;101993.78;;;26.71;24.57
14295;BME280;7231;59.370;18.016;2023-05-14T11:01:05;101999.44;;;27.02;24.81
14295;BME280;7231;59.370;18.016;2023-05-14T11:03:38;101982.97;;;26.74;24.76
14295;BME280;7231;59.370;18.016;2023-05-14T11:06:08;101877.03;;;25.92;25.05
14295;BME280;7231;59.370;18.016;2023-05-14T11:08:37;101976.22;;;26.97;24.73
14295;BME280;7231;59.370;18.016;2023-05-14T11:11:05;101977.88;;;27.42;24.28
14295;BME280;7231;59.370;18.016;2023-05-14T11:13:33;101978.00;;;27.75;24.06
14295;BME280;7231;59.370;18.016;2023-05-14T11:16:03;101976.59;;;27.94;23.73
14295;BME280;7231;59.370;18.016;2023-05-14T11:18:35;101983.00;;;27.53;24.22
14295;BME280;7231;59.370;18.016;2023-05-14T11:21:04;101986.38;;;27.98;24.19
14295;BME280;7231;59.370;18.016;2023-05-14T11:23:32;101978.50;;;28.57;23.66
14295;BME280;7231;59.370;18.016;2023-05-14T11:26:00;101982.91;;;28.91;23.19
14295;BME280;7231;59.370;18.016;2023-05-14T11:28:28;101963.03;;;28.62;23.36
14295;BME280;7231;59.370;18.016;2023-05-14T11:30:56;101970.06;;;28.04;23.30
14295;BME280;7231;59.370;18.016;2023-05-14T11:33:26;101966.34;;;27.36;23.97
14295;BME280;7231;59.370;18.016;2023-05-14T11:35:54;101967.56;;;26.81;24.53
14295;BME280;7231;59.370;18.016;2023-05-14T11:38:22;101930.56;;;26.91;24.10
14295;BME280;7231;59.370;18.016;2023-05-14T11:40:51;101965.59;;;27.68;24.09
14295;BME280;7231;59.370;18.016;2023-05-14T11:43:19;101956.81;;;27.95;23.42
14295;BME280;7231;59.370;18.016;2023-05-14T11:45:49;101957.69;;;27.62;23.34
14295;BME280;7231;59.370;18.016;2023-05-14T11:48:18;101965.84;;;27.20;23.72
14295;BME280;7231;59.370;18.016;2023-05-14T11:50:48;101956.03;;;27.17;23.31
14295;BME280;7231;59.370;18.016;2023-05-14T11:53:17;101960.03;;;26.98;22.98
14295;BME280;7231;59.370;18.016;2023-05-14T11:55:47;101954.69;;;26.95;23.39
14295;BME280;7231;59.370;18.016;2023-05-14T11:58:16;101954.47;;;27.82;23.19
14295;BME280;7231;59.370;18.016;2023-05-14T12:00:45;101905.19;;;28.41;22.72
14295;BME280;7231;59.370;18.016;2023-05-14T12:03:13;101945.13;;;29.19;21.74
14295;BME280;7231;59.370;18.016;2023-05-14T12:05:55;101936.34;;;29.12;22.02
14295;BME280;7231;59.370;18.016;2023-05-14T12:08:25;101935.53;;;29.36;21.66
14295;BME280;7231;59.370;18.016;2023-05-14T12:10:54;101940.31;;;29.56;21.93
14295;BME280;7231;59.370;18.016;2023-05-14T12:13:25;101944.78;;;29.84;21.10
14295;BME280;7231;59.370;18.016;2023-05-14T12:15:54;101934.25;;;29.76;20.34
14295;BME280;7231;59.370;18.016;2023-05-14T12:18:23;101933.59;;;29.94;19.80
14295;BME280;7231;59.370;18.016;2023-05-14T12:20:52;101931.78;;;30.45;19.85
14295;BME280;7231;59.370;18.016;2023-05-14T12:23:25;101920.06;;;30.44;20.21
14295;BME280;7231;59.370;18.016;2023-05-14T12:25:53;101910.84;;;30.50;20.22
14295;BME280;7231;59.370;18.016;2023-05-14T12:28:22;101920.50;;;30.57;19.46
14295;BME280;7231;59.370;18.016;2023-05-14T12:30:55;101910.81;;;30.75;19.33
14295;BME280;7231;59.370;18.016;2023-05-14T12:33:24;101922.13;;;31.08;19.53
14295;BME280;7231;59.370;18.016;2023-05-14T12:35:52;101913.81;;;30.67;19.27
14295;BME280;7231;59.370;18.016;2023-05-14T12:38:27;101894.53;;;30.28;19.95
14295;BME280;7231;59.370;18.016;2023-05-14T12:40:55;101909.47;;;30.38;19.56
14295;BME280;7231;59.370;18.016;2023-05-14T12:43:23;101919.66;;;30.07;19.35
14295;BME280;7231;59.370;18.016;2023-05-14T12:45:55;101921.53;;;30.04;19.66
14295;BME280;7231;59.370;18.016;2023-05-14T12:48:23;101913.53;;;29.75;19.31
14295;BME280;7231;59.370;18.016;2023-05-14T12:50:51;101916.34;;;30.23;19.31
14295;BME280;7231;59.370;18.016;2023-05-14T12:53:19;101913.63;;;30.95;19.25
14295;BME280;7231;59.370;18.016;2023-05-14T12:55:48;101912.78;;;30.93;19.18
14295;BME280;7231;59.370;18.016;2023-05-14T12:58:16;101902.22;;;30.87;19.26
14295;BME280;7231;59.370;18.016;2023-05-14T13:00:44;101917.25;;;31.17;19.10